createdAt,value
2022-10-11T00:12:59.151Z,8.5
2022-10-11T00:27:30.914Z,8.2
2022-10-11T00:42:03.169Z,7.9
2022-10-11T00:56:35.963Z,8.1
2022-10-11T01:11:07.476Z,8.1
2022-10-11T01:25:40.085Z,7.4
2022-10-11T01:40:12.553Z,7.6
2022-10-11T01:55:10.881Z,7.4
2022-10-11T02:09:30.011Z,7.1
2022-10-11T02:24:02.006Z,7.3
2022-10-11T02:38:34.835Z,7.1
2022-10-11T02:53:07.358Z,6.8
2022-10-11T03:07:39.359Z,6.5
2022-10-11T03:22:10.313Z,7.2
2022-10-11T03:36:44.011Z,7.4
2022-10-11T03:51:16.711Z,7.4
2022-10-11T04:05:49.731Z,7
2022-10-11T04:20:20.452Z,6.4
2022-10-11T04:34:53.363Z,6.6
2022-10-11T04:49:25.624Z,6.8
2022-10-11T05:03:58.360Z,6.6
2022-10-11T05:18:30.184Z,6.5
2022-10-11T05:33:01.450Z,6.4
2022-10-11T05:47:31.714Z,6.4
2022-10-11T06:02:03.657Z,6.3
2022-10-11T06:16:35.727Z,5.6
2022-10-11T06:31:10.221Z,6.3
2022-10-11T06:45:42.983Z,6.1
2022-10-11T07:00:16.665Z,6.2
2022-10-11T07:14:50.724Z,6.5
2022-10-11T07:29:23.174Z,7
2022-10-11T07:43:57.995Z,6
2022-10-11T07:58:31.417Z,6.8
2022-10-11T08:13:14.735Z,7.8
2022-10-11T08:27:49.864Z,8
2022-10-11T08:42:23.491Z,8.7
2022-10-11T08:56:54.615Z,9.3
2022-10-11T09:11:28.416Z,9.3
2022-10-11T09:26:05.686Z,9.8
2022-10-11T09:40:41.978Z,9.8
2022-10-11T09:55:11.208Z,9.7
2022-10-11T10:09:44.410Z,9.5
2022-10-11T10:24:17.692Z,9.1
2022-10-11T10:38:52.867Z,9.3
2022-10-11T10:53:24.384Z,8.7
2022-10-11T11:07:55.316Z,7.5
2022-10-11T11:22:33.234Z,7.1
2022-10-11T11:37:01.982Z,7
2022-10-11T11:51:37.213Z,7.9
2022-10-11T12:06:08.435Z,7.4
2022-10-11T12:20:41.185Z,7.2
2022-10-11T12:35:13.424Z,7.2
2022-10-11T12:49:47.521Z,6.9
2022-10-11T13:04:21.642Z,6.5
2022-10-11T13:18:54.013Z,6.9
2022-10-11T13:48:05.182Z,6.5
2022-10-11T14:02:37.557Z,6.2
2022-10-11T14:17:11.800Z,5.7
2022-10-11T14:31:43.738Z,6.9
2022-10-11T14:46:17.266Z,6.1
2022-10-11T15:00:49.363Z,5.7
2022-10-11T15:15:23.257Z,5.8
2022-10-11T15:29:55.801Z,6.6
2022-10-11T15:44:28.701Z,6.7
2022-10-11T15:59:00.801Z,7.1
2022-10-11T16:13:32.432Z,6.8
2022-10-11T16:28:03.191Z,7
2022-10-11T16:42:35.842Z,7
2022-10-11T16:57:06.591Z,6.8
2022-10-11T17:11:39.892Z,6.9
2022-10-11T17:26:13.832Z,6.8
2022-10-11T17:40:54.466Z,6.8
2022-10-11T17:55:19.809Z,6.5
2022-10-11T18:09:52.984Z,6.6
2022-10-11T18:24:25.125Z,6.5
2022-10-11T18:38:57.690Z,6.7
2022-10-11T18:53:29.061Z,6.4
2022-10-11T19:08:01.619Z,6.7
2022-10-11T19:22:23.596Z,6.7
2022-10-11T19:36:55.106Z,6.7
2022-10-11T19:51:26.705Z,6.7
2022-10-11T20:06:00.226Z,6.4
2022-10-11T20:20:32.216Z,6.6
2022-10-11T20:35:05.137Z,6.6
2022-10-11T20:49:36.805Z,6.3
2022-10-11T21:04:08.567Z,6.3
2022-10-11T21:18:40.218Z,6.6
2022-10-11T21:33:13.661Z,6.6
2022-10-11T21:47:52.710Z,6.5
2022-10-11T22:02:21.192Z,6.2
2022-10-11T22:16:53.888Z,6.6
2022-10-11T22:31:25.788Z,6.5
2022-10-11T22:45:57.677Z,6.5
2022-10-11T23:00:29.279Z,6.6
2022-10-11T23:15:01.973Z,6.2
2022-10-11T23:29:33.797Z,6.2
2022-10-11T23:44:06.194Z,6.1
2022-10-11T23:58:38.766Z,5.8
